Airfield :
LOGIN :

Register | Disclaimer

   EN    FR    IT 

 










Legend :    VFR   Marginal VFR   IFR   Intensive IFR   Very Intensive IFR
Visi :
Ceiling :
>= 8 km
>= 3000ft
5 to 8 km
1000 to 3000 ft
1500m to 5 km
500 to 1000 ft
800 to 1500m
200 to 500 ft
< 800m
< 200 ft
Symbols :   Thunderstorms  Fog  Heavy snow  Heavy precipitations  Wind > 20 kt
SIGMETs :     Misc.  Thunderstorms  Icing  Turbulence  Mountain Waves  Volcanic Ashes






- Airport Elevation : 26 ft
- IATA code : GLA


EGPF - Glasgow

CURRENT METAR :
  • 041250Z AUTO 26011KT 9999 -RA BKN016 OVC034 13/12 Q1005

EXPIRED METARs :
  • 041220Z AUTO 24007KT 9999 -RA SCT016/// BKN021/// //////TCU 13/12 Q1005
  • 041150Z AUTO 25007KT 9999 -RA BKN033 BKN042 13/12 Q1004
  • 041120Z AUTO 26008KT 9999 -RA BKN014/// BKN025/// //////TCU 13/12 Q1004
  • 041050Z AUTO 24007KT 9999 -RA SCT016/// BKN023/// //////TCU 14/13 Q1004
  • 041020Z AUTO 25007KT 9999 -RA BKN013/// BKN021/// BKN037/// //////TCU 14/14 Q1004
  • 040950Z AUTO 24007KT 9999 -RA BKN027/// BKN032/// //////TCU 14/14 Q1003 RERA

TAF TAF EGPF
Valid from the 04 at 12:00 until the 05 at 12:00 UTC


041102Z 0412/0512 24010KT 9999 FEW015 SCT020
PROB40
TEMPO 0412/0417 5000 RA
BECMG 0418/0421 10006KT
TEMPO 0421/0508 5000 RA BKN012
PROB30
TEMPO 0421/0506 3000 +RA BKN006
BECMG 0504/0508 25010KT
PROB40
TEMPO 0508/0510 6000 SHRA
PROB30
TEMPO 0510/0512 4000 +SHRA
ATIS : +44 141 887 7449



MET'MAP, your aeronautical weather chart ! - Copyright ORBIFLY December 2007 - Disclaimer

ORBIFLY MET'MAP TEAM :

Programming & Development : Alexandra Zaïnal
Original concept : Baudouin d'Aumeries
Technical & hardware support : Manuel Goepfert
Assistance : Marc-Olivier Méhu




SOURCES & CREDITS :

   NOAA